Time;durP1;ratioP1;P1;durP2;ratioP2;P2;SDS_P1;SDS_P2;PMS_P1;PMS_P2;Temp;Humidity;BMP_temperature;BMP_pressure;BME280_temperature;BME280_humidity;BME280_pressure;Samples;Min_cycle;Max_cycle;Signal;HPM_P1;HPM_P2
2022/06/06 00:01:20;;;;;;;4.35;2.45;;;;;;;;;;5094446;28;20043;-70
2022/06/06 00:03:48;;;;;;;3.50;2.20;;;;;;;;;;5094473;28;20039;-70
2022/06/06 00:06:16;;;;;;;4.35;2.70;;;;;;;;;;5094604;28;20106;-70
2022/06/06 00:08:42;;;;;;;3.83;2.30;;;;;;;;;;5097391;28;20036;-70
2022/06/06 00:11:09;;;;;;;2.80;2.58;;;;;;;;;;5098921;28;20048;-70
2022/06/06 00:13:36;;;;;;;3.45;2.53;;;;;;;;;;5098663;28;20032;-70
2022/06/06 00:16:03;;;;;;;3.17;2.50;;;;;;;;;;5098906;28;20052;-70
2022/06/06 00:18:29;;;;;;;3.50;2.47;;;;;;;;;;5098389;28;20036;-70
2022/06/06 00:20:57;;;;;;;4.75;3.30;;;;;;;;;;5098772;28;20127;-70
2022/06/06 00:23:23;;;;;;;6.63;2.80;;;;;;;;;;5098498;28;20036;-70
2022/06/06 00:25:50;;;;;;;4.78;2.42;;;;;;;;;;5098248;28;20048;-70
2022/06/06 00:28:16;;;;;;;2.88;2.40;;;;;;;;;;5098588;28;20036;-70
2022/06/06 00:30:42;;;;;;;3.88;2.28;;;;;;;;;;5098441;28;20040;-70
2022/06/06 00:35:56;;;;;;;4.30;2.22;;;;;;;;;;5097668;28;20079;-70
2022/06/06 00:38:23;;;;;;;2.63;2.42;;;;;;;;;;5098872;28;20517;-70
2022/06/06 00:40:50;;;;;;;5.07;2.65;;;;;;;;;;5097945;28;20089;-70
2022/06/06 00:43:16;;;;;;;3.03;2.20;;;;;;;;;;5097922;28;20077;-70
2022/06/06 00:45:43;;;;;;;4.45;2.60;;;;;;;;;;5098273;28;20467;-70
2022/06/06 00:48:12;;;;;;;4.35;2.60;;;;;;;;;;5097600;28;20051;-70
2022/06/06 00:50:47;;;;;;;4.10;2.70;;;;;;;;;;5098085;28;20044;-70
2022/06/06 00:53:14;;;;;;;4.43;2.47;;;;;;;;;;5098473;28;20050;-70
2022/06/06 00:55:43;;;;;;;2.63;2.42;;;;;;;;;;5098403;28;20048;-70
2022/06/06 00:58:15;;;;;;;2.60;2.40;;;;;;;;;;5097938;28;20039;-70
2022/06/06 01:00:43;;;;;;;3.08;2.50;;;;;;;;;;5098029;28;20118;-70
2022/06/06 01:03:10;;;;;;;2.97;2.20;;;;;;;;;;5097530;28;20563;-70
2022/06/06 01:05:37;;;;;;;3.42;2.47;;;;;;;;;;5097515;28;20101;-70
2022/06/06 01:08:04;;;;;;;6.30;2.85;;;;;;;;;;5098246;28;20044;-70
2022/06/06 01:10:30;;;;;;;5.55;2.70;;;;;;;;;;5097712;28;20032;-70
2022/06/06 01:12:57;;;;;;;4.60;2.97;;;;;;;;;;5097306;28;20509;-70
2022/06/06 01:15:25;;;;;;;3.92;2.70;;;;;;;;;;5097577;28;20040;-70
2022/06/06 01:18:05;;;;;;;4.80;2.63;;;;;;;;;;5097482;28;20035;-70
2022/06/06 01:20:53;;;;;;;5.07;2.72;;;;;;;;;;5097744;28;20044;-70
2022/06/06 01:23:41;;;;;;;4.28;2.60;;;;;;;;;;5097755;28;20040;-70
2022/06/06 01:26:20;;;;;;;3.65;2.50;;;;;;;;;;5097290;28;20051;-70
2022/06/06 01:29:03;;;;;;;3.75;2.60;;;;;;;;;;5097689;28;20513;-70
2022/06/06 01:31:34;;;;;;;3.20;2.92;;;;;;;;;;5096932;28;20499;-70
2022/06/06 01:34:01;;;;;;;2.65;2.45;;;;;;;;;;5097337;28;20108;-70
2022/06/06 01:36:29;;;;;;;3.08;2.58;;;;;;;;;;5096992;28;20074;-70
2022/06/06 01:38:57;;;;;;;3.50;3.05;;;;;;;;;;5097143;28;20036;-70
2022/06/06 01:41:41;;;;;;;4.70;2.70;;;;;;;;;;5097051;28;20044;-70
2022/06/06 01:44:16;;;;;;;3.42;2.60;;;;;;;;;;5097065;28;20535;-70
2022/06/06 01:46:42;;;;;;;3.10;2.80;;;;;;;;;;5097153;28;20541;-70
2022/06/06 01:49:10;;;;;;;4.60;2.92;;;;;;;;;;5097193;28;20032;-70
2022/06/06 01:51:36;;;;;;;4.15;2.78;;;;;;;;;;5096451;28;20122;-70
2022/06/06 01:54:03;;;;;;;3.13;2.80;;;;;;;;;;5096847;28;20043;-70
2022/06/06 01:56:31;;;;;;;4.30;2.70;;;;;;;;;;5097017;28;20051;-70
2022/06/06 01:58:57;;;;;;;4.90;2.92;;;;;;;;;;5097258;28;20028;-70
2022/06/06 02:01:24;;;;;;;3.42;2.97;;;;;;;;;;5096770;28;20051;-70
2022/06/06 02:03:50;;;;;;;4.50;3.25;;;;;;;;;;5096842;28;20067;-70
2022/06/06 02:06:16;;;;;;;4.38;3.10;;;;;;;;;;5096221;28;20051;-70
2022/06/06 02:08:42;;;;;;;2.72;2.42;;;;;;;;;;5096597;28;20093;-70
2022/06/06 02:11:09;;;;;;;4.25;2.70;;;;;;;;;;5095508;28;20032;-70
2022/06/06 02:13:36;;;;;;;4.18;2.95;;;;;;;;;;5095402;28;20040;-70
2022/06/06 02:16:02;;;;;;;4.07;2.90;;;;;;;;;;5094762;28;20048;-70
2022/06/06 02:18:28;;;;;;;3.90;3.28;;;;;;;;;;5096030;28;20135;-70
2022/06/06 02:20:55;;;;;;;5.63;3.28;;;;;;;;;;5094640;28;20036;-70
2022/06/06 02:23:21;;;;;;;4.05;3.33;;;;;;;;;;5095543;28;20036;-70
2022/06/06 02:25:47;;;;;;;2.83;2.63;;;;;;;;;;5096549;28;20047;-70
2022/06/06 02:28:15;;;;;;;3.63;2.95;;;;;;;;;;5095845;28;20050;-70
2022/06/06 02:30:41;;;;;;;4.47;3.42;;;;;;;;;;5094669;28;20487;-70
2022/06/06 02:33:07;;;;;;;5.05;3.58;;;;;;;;;;5094331;28;20093;-70
2022/06/06 02:35:35;;;;;;;3.58;2.83;;;;;;;;;;5094329;28;20046;-70
2022/06/06 02:38:01;;;;;;;6.45;3.40;;;;;;;;;;5094126;28;20064;-70
2022/06/06 02:40:28;;;;;;;5.28;3.50;;;;;;;;;;5094623;28;20123;-70
2022/06/06 02:42:54;;;;;;;5.45;3.22;;;;;;;;;;5095795;28;20550;-70
2022/06/06 02:45:21;;;;;;;4.95;3.40;;;;;;;;;;5095559;28;20032;-70
2022/06/06 02:47:49;;;;;;;3.80;3.30;;;;;;;;;;5096036;28;20495;-70
2022/06/06 02:50:16;;;;;;;9.95;3.60;;;;;;;;;;5095612;28;20471;-70
2022/06/06 02:52:43;;;;;;;4.72;3.08;;;;;;;;;;5095472;28;20031;-70
2022/06/06 02:55:09;;;;;;;4.15;3.33;;;;;;;;;;5095072;28;20086;-70
2022/06/06 02:57:39;;;;;;;3.78;3.38;;;;;;;;;;5096177;28;20044;-70
2022/06/06 03:00:06;;;;;;;3.97;2.92;;;;;;;;;;5095529;28;20042;-70
2022/06/06 03:02:33;;;;;;;4.13;2.90;;;;;;;;;;5095565;28;20044;-70
2022/06/06 03:04:59;;;;;;;3.70;3.40;;;;;;;;;;5095948;28;20067;-70
2022/06/06 03:07:32;;;;;;;7.68;3.28;;;;;;;;;;5095405;28;20083;-70
2022/06/06 03:10:16;;;;;;;3.78;3.08;;;;;;;;;;5096038;28;20044;-70
2022/06/06 03:13:18;;;;;;;4.75;3.00;;;;;;;;;;5095674;28;20072;-70
2022/06/06 03:21:40;;;;;;;4.05;3.35;;;;;;;;;;5083120;28;20036;-70
2022/06/06 03:24:13;;;;;;;3.88;3.30;;;;;;;;;;5094617;28;20040;-70
2022/06/06 03:26:58;;;;;;;3.88;3.28;;;;;;;;;;5095242;28;20048;-70
2022/06/06 03:29:44;;;;;;;5.18;3.22;;;;;;;;;;5095185;28;20032;-70
2022/06/06 03:32:29;;;;;;;4.65;3.25;;;;;;;;;;5094887;28;20545;-70
2022/06/06 03:35:00;;;;;;;4.47;3.08;;;;;;;;;;5095536;28;20100;-70
2022/06/06 03:37:44;;;;;;;5.53;3.35;;;;;;;;;;5095285;28;20048;-70
2022/06/06 03:40:29;;;;;;;7.05;3.35;;;;;;;;;;5095351;28;20169;-70
2022/06/06 03:43:15;;;;;;;5.28;3.53;;;;;;;;;;5094739;28;20037;-70
2022/06/06 03:45:44;;;;;;;4.63;3.55;;;;;;;;;;5063530;28;20467;-70
2022/06/06 03:48:10;;;;;;;4.38;3.40;;;;;;;;;;5095568;28;20040;-70
2022/06/06 03:50:36;;;;;;;4.05;3.65;;;;;;;;;;5093461;28;20416;-70
2022/06/06 03:53:15;;;;;;;5.35;3.70;;;;;;;;;;5094871;28;20047;-70
2022/06/06 03:55:47;;;;;;;8.95;3.47;;;;;;;;;;5095066;28;20040;-70
2022/06/06 03:58:15;;;;;;;6.03;3.40;;;;;;;;;;5094979;28;20483;-70
2022/06/06 04:00:42;;;;;;;4.57;3.55;;;;;;;;;;5093691;28;20386;-70
2022/06/06 04:03:09;;;;;;;4.88;3.58;;;;;;;;;;5094474;28;20044;-70
2022/06/06 04:05:36;;;;;;;7.40;3.60;;;;;;;;;;5094592;28;20036;-70
2022/06/06 04:08:03;;;;;;;4.22;3.60;;;;;;;;;;5094656;28;20083;-70
2022/06/06 04:10:37;;;;;;;4.85;3.28;;;;;;;;;;5094623;28;20048;-70
2022/06/06 04:13:22;;;;;;;6.20;3.40;;;;;;;;;;5094145;28;20040;-70
2022/06/06 04:16:06;;;;;;;6.75;3.60;;;;;;;;;;5094124;28;20036;-70
2022/06/06 04:18:38;;;;;;;4.55;3.17;;;;;;;;;;5094658;28;20066;-70
2022/06/06 04:21:20;;;;;;;5.55;3.40;;;;;;;;;;5094659;28;20044;-70
2022/06/06 04:23:49;;;;;;;5.28;3.50;;;;;;;;;;5094531;28;20040;-70
2022/06/06 04:26:15;;;;;;;5.25;3.75;;;;;;;;;;5094276;28;20052;-70
2022/06/06 04:28:41;;;;;;;4.57;3.45;;;;;;;;;;5094473;28;20038;-70
2022/06/06 04:31:23;;;;;;;9.07;3.47;;;;;;;;;;5094732;28;20040;-70
2022/06/06 04:34:09;;;;;;;3.55;3.10;;;;;;;;;;5094497;28;20089;-70
2022/06/06 04:36:42;;;;;;;3.95;3.22;;;;;;;;;;5094130;28;20046;-70
2022/06/06 04:39:17;;;;;;;4.35;3.20;;;;;;;;;;5094470;28;20539;-70
2022/06/06 04:42:03;;;;;;;3.80;3.22;;;;;;;;;;5094400;28;20044;-70
2022/06/06 04:44:29;;;;;;;5.70;3.70;;;;;;;;;;5094387;28;20088;-69
2022/06/06 04:47:04;;;;;;;5.43;3.38;;;;;;;;;;5093616;28;20040;-69
2022/06/06 04:49:32;;;;;;;4.18;3.60;;;;;;;;;;5093777;28;20040;-69
2022/06/06 04:51:59;;;;;;;5.78;3.92;;;;;;;;;;5093767;28;20116;-69
2022/06/06 04:54:26;;;;;;;3.50;3.20;;;;;;;;;;5096003;28;20040;-70
2022/06/06 04:56:53;;;;;;;7.22;4.32;;;;;;;;;;5097668;28;20048;-69
2022/06/06 04:59:20;;;;;;;5.43;3.15;;;;;;;;;;5097482;28;20032;-69
2022/06/06 05:01:46;;;;;;;3.88;3.42;;;;;;;;;;5097273;28;20044;-69
2022/06/06 05:04:13;;;;;;;4.85;3.53;;;;;;;;;;5097840;28;20036;-69
2022/06/06 05:06:57;;;;;;;3.55;3.25;;;;;;;;;;5097408;28;20101;-69
2022/06/06 05:09:42;;;;;;;5.70;3.40;;;;;;;;;;5097174;28;20036;-69
2022/06/06 05:12:32;;;;;;;4.95;3.20;;;;;;;;;;5096733;28;20040;-69
2022/06/06 05:15:01;;;;;;;3.80;3.05;;;;;;;;;;5097043;28;20032;-69
2022/06/06 05:17:33;;;;;;;3.83;2.60;;;;;;;;;;5097025;28;20406;-69
2022/06/06 05:20:08;;;;;;;3.13;2.83;;;;;;;;;;5097328;28;20093;-70
2022/06/06 05:22:53;;;;;;;4.30;2.67;;;;;;;;;;5097766;28;20040;-69
2022/06/06 05:25:33;;;;;;;3.22;2.55;;;;;;;;;;5096592;28;20044;-70
2022/06/06 05:28:18;;;;;;;4.63;2.80;;;;;;;;;;5097398;28;20048;-70
2022/06/06 05:30:49;;;;;;;2.80;2.20;;;;;;;;;;5096747;28;20077;-70
2022/06/06 05:33:17;;;;;;;4.30;3.22;;;;;;;;;;5096661;28;20089;-70
2022/06/06 05:36:02;;;;;;;2.97;2.22;;;;;;;;;;5096849;28;20048;-70
2022/06/06 05:38:31;;;;;;;4.82;2.10;;;;;;;;;;5096942;28;20036;-70
2022/06/06 05:41:03;;;;;;;2.85;1.88;;;;;;;;;;5096577;28;20050;-70
2022/06/06 05:43:43;;;;;;;4.32;1.98;;;;;;;;;;5097150;28;20130;-70
2022/06/06 05:46:15;;;;;;;4.38;1.80;;;;;;;;;;5096931;28;20051;-72
2022/06/06 05:48:53;;;;;;;3.42;1.90;;;;;;;;;;5097593;28;20040;-71
2022/06/06 05:51:38;;;;;;;2.47;1.80;;;;;;;;;;5095867;28;20044;-71
2022/06/06 05:54:10;;;;;;;2.15;1.60;;;;;;;;;;5094765;28;20036;-71
2022/06/06 05:56:36;;;;;;;5.90;1.70;;;;;;;;;;5093620;28;20089;-71
2022/06/06 05:59:21;;;;;;;1.80;1.67;;;;;;;;;;5095805;28;20044;-71
2022/06/06 06:01:50;;;;;;;1.90;1.50;;;;;;;;;;5093502;28;20552;-71
2022/06/06 06:04:25;;;;;;;2.65;1.73;;;;;;;;;;5092707;28;20414;-71
2022/06/06 06:06:56;;;;;;;4.53;1.80;;;;;;;;;;5095966;28;20048;-71
2022/06/06 06:09:46;;;;;;;2.95;1.60;;;;;;;;;;5096902;28;20192;-71
2022/06/06 06:12:24;;;;;;;1.58;1.40;;;;;;;;;;5096136;28;20040;-71
2022/06/06 06:15:03;;;;;;;2.95;1.50;;;;;;;;;;5095784;28;20517;-71
2022/06/06 06:17:32;;;;;;;2.22;1.80;;;;;;;;;;5096741;28;20077;-71
2022/06/06 06:20:09;;;;;;;3.05;1.70;;;;;;;;;;5096220;28;20128;-71
2022/06/06 06:22:37;;;;;;;2.60;1.70;;;;;;;;;;5095856;28;20039;-70
2022/06/06 06:25:04;;;;;;;4.38;1.85;;;;;;;;;;5096336;28;20113;-71
2022/06/06 06:27:33;;;;;;;2.33;1.60;;;;;;;;;;5096423;28;20463;-71
2022/06/06 06:29:59;;;;;;;3.97;1.50;;;;;;;;;;5096144;28;20065;-71
2022/06/06 06:32:43;;;;;;;3.60;1.70;;;;;;;;;;5095828;28;20379;-71
2022/06/06 06:35:16;;;;;;;4.22;1.50;;;;;;;;;;5096209;28;20048;-71
2022/06/06 06:37:50;;;;;;;1.50;1.40;;;;;;;;;;5095776;28;20529;-71
2022/06/06 06:40:25;;;;;;;2.47;1.90;;;;;;;;;;5095737;28;20044;-71
2022/06/06 06:42:58;;;;;;;2.40;1.70;;;;;;;;;;5095930;28;20093;-71
2022/06/06 06:45:28;;;;;;;5.40;1.77;;;;;;;;;;5095757;28;20123;-71
2022/06/06 06:47:58;;;;;;;1.63;1.40;;;;;;;;;;5095864;28;20047;-71
2022/06/06 06:50:43;;;;;;;4.53;1.58;;;;;;;;;;5095756;28;20089;-71
2022/06/06 06:53:12;;;;;;;1.75;1.52;;;;;;;;;;5095763;28;20532;-71
2022/06/06 06:55:38;;;;;;;2.30;1.42;;;;;;;;;;5095567;28;20070;-71
2022/06/06 06:58:13;;;;;;;3.00;1.65;;;;;;;;;;5095118;28;20040;-71
2022/06/06 07:00:42;;;;;;;4.03;1.90;;;;;;;;;;5095469;28;20044;-71
2022/06/06 07:09:07;;;;;;;3.85;1.73;;;;;;;;;;5094688;28;20071;-71
2022/06/06 07:11:49;;;;;;;2.20;1.40;;;;;;;;;;5095066;28;20047;-71
2022/06/06 07:14:18;;;;;;;1.77;1.40;;;;;;;;;;5095716;28;20073;-71
2022/06/06 07:16:46;;;;;;;3.42;1.52;;;;;;;;;;5094435;28;20417;-71
2022/06/06 07:19:23;;;;;;;2.55;1.42;;;;;;;;;;5094742;28;20055;-71
2022/06/06 07:21:50;;;;;;;5.32;2.00;;;;;;;;;;5094835;28;20036;-71
2022/06/06 07:24:17;;;;;;;1.50;1.40;;;;;;;;;;5094708;28;20035;-71
2022/06/06 07:26:44;;;;;;;2.08;1.20;;;;;;;;;;5094185;28;20059;-71
2022/06/06 07:29:12;;;;;;;2.50;1.40;;;;;;;;;;5094545;28;20494;-70
2022/06/06 07:32:03;;;;;;;1.40;1.30;;;;;;;;;;5094922;28;20066;-71
2022/06/06 07:34:32;;;;;;;2.95;1.50;;;;;;;;;;5094343;28;20458;-70
2022/06/06 07:37:07;;;;;;;1.85;1.50;;;;;;;;;;5094797;28;20089;-71
2022/06/06 07:39:44;;;;;;;2.65;1.23;;;;;;;;;;5095052;28;20044;-70
2022/06/06 07:42:13;;;;;;;7.13;1.40;;;;;;;;;;5094780;28;20105;-70
2022/06/06 07:44:39;;;;;;;3.83;1.25;;;;;;;;;;5094291;28;20069;-70
2022/06/06 07:47:05;;;;;;;2.38;1.60;;;;;;;;;;5094343;28;20505;-71
2022/06/06 07:49:37;;;;;;;1.50;1.40;;;;;;;;;;5094573;28;20044;-71
2022/06/06 07:52:09;;;;;;;2.45;1.60;;;;;;;;;;5094325;28;20048;-70
2022/06/06 07:54:42;;;;;;;2.03;1.55;;;;;;;;;;5094765;28;20115;-70
2022/06/06 07:57:25;;;;;;;2.97;2.13;;;;;;;;;;5094264;28;20044;-69
2022/06/06 07:59:57;;;;;;;2.47;1.80;;;;;;;;;;5111858;28;20044;-70
2022/06/06 08:02:36;;;;;;;2.63;1.98;;;;;;;;;;5099026;28;20044;-69
2022/06/06 08:05:18;;;;;;;4.05;1.83;;;;;;;;;;5094678;28;20047;-69
2022/06/06 08:07:57;;;;;;;3.03;1.30;;;;;;;;;;5094317;28;20072;-69
2022/06/06 08:10:29;;;;;;;2.50;2.00;;;;;;;;;;5094915;28;20048;-69
2022/06/06 08:12:58;;;;;;;4.05;1.63;;;;;;;;;;5094189;28;20075;-69
2022/06/06 08:15:43;;;;;;;4.03;1.70;;;;;;;;;;5094715;28;20044;-69
2022/06/06 08:18:38;;;;;;;2.42;1.83;;;;;;;;;;5094692;28;20040;-69
2022/06/06 08:21:23;;;;;;;3.88;1.73;;;;;;;;;;5084437;28;20047;-69
2022/06/06 08:23:51;;;;;;;3.55;1.60;;;;;;;;;;5094336;28;20032;-69
2022/06/06 08:26:18;;;;;;;3.35;1.70;;;;;;;;;;5094380;28;20048;-70
2022/06/06 08:28:45;;;;;;;4.32;1.90;;;;;;;;;;5087837;28;20032;-68
2022/06/06 08:31:11;;;;;;;3.25;1.65;;;;;;;;;;5092681;28;20044;-68
2022/06/06 08:33:37;;;;;;;3.67;1.77;;;;;;;;;;5097389;28;20177;-69
2022/06/06 08:36:12;;;;;;;2.65;1.73;;;;;;;;;;5098091;28;20059;-69
2022/06/06 08:38:51;;;;;;;3.88;1.70;;;;;;;;;;5097417;28;20032;-69
2022/06/06 08:41:36;;;;;;;2.53;2.00;;;;;;;;;;5094537;28;20035;-69
2022/06/06 08:44:14;;;;;;;3.72;2.00;;;;;;;;;;5097666;28;20040;-69
2022/06/06 08:46:43;;;;;;;4.00;1.90;;;;;;;;;;5097374;28;20136;-70
2022/06/06 08:52:23;;;;;;;1.90;1.80;;;;;;;;;;5097309;28;20410;-70
2022/06/06 08:55:05;;;;;;;2.97;1.88;;;;;;;;;;5097437;28;20069;-70
2022/06/06 08:57:39;;;;;;;2.30;1.77;;;;;;;;;;5099552;28;20039;-70
2022/06/06 09:00:11;;;;;;;2.13;1.90;;;;;;;;;;5097936;28;20047;-70
2022/06/06 09:02:56;;;;;;;1.70;1.60;;;;;;;;;;5097530;28;20044;-70
2022/06/06 09:05:28;;;;;;;2.05;1.85;;;;;;;;;;5094207;28;20043;-69
2022/06/06 09:08:24;;;;;;;3.42;2.10;;;;;;;;;;5095140;28;20052;-69
2022/06/06 09:10:56;;;;;;;2.85;1.73;;;;;;;;;;5086662;28;20079;-69
2022/06/06 09:13:28;;;;;;;2.40;2.10;;;;;;;;;;5096866;28;20046;-68
2022/06/06 09:16:13;;;;;;;5.15;2.05;;;;;;;;;;5097165;28;20036;-68
2022/06/06 09:18:57;;;;;;;2.72;1.60;;;;;;;;;;5097239;28;20086;-67
2022/06/06 09:21:26;;;;;;;1.60;1.50;;;;;;;;;;5087027;28;20502;-67
2022/06/06 09:23:56;;;;;;;1.85;1.75;;;;;;;;;;5080666;28;20032;-67
2022/06/06 09:26:24;;;;;;;4.03;1.73;;;;;;;;;;5084495;28;20052;-67
2022/06/06 09:28:58;;;;;;;3.05;1.90;;;;;;;;;;5091924;28;20040;-67
2022/06/06 09:31:28;;;;;;;3.90;1.90;;;;;;;;;;5090867;28;20042;-68
2022/06/06 09:34:04;;;;;;;2.20;1.67;;;;;;;;;;5095953;28;20575;-68
2022/06/06 09:36:47;;;;;;;2.28;1.88;;;;;;;;;;5090010;28;20119;-68
2022/06/06 09:39:32;;;;;;;2.28;1.77;;;;;;;;;;5086644;28;20060;-68
2022/06/06 09:42:25;;;;;;;2.78;1.52;;;;;;;;;;5081506;28;20090;-68
2022/06/06 09:45:10;;;;;;;5.25;2.10;;;;;;;;;;5064658;28;20068;-69
2022/06/06 09:47:39;;;;;;;2.83;2.00;;;;;;;;;;5087305;28;20052;-68
2022/06/06 09:50:23;;;;;;;1.77;1.67;;;;;;;;;;5081746;28;20051;-68
2022/06/06 09:53:08;;;;;;;2.28;1.90;;;;;;;;;;5077253;28;20039;-68
2022/06/06 10:01:38;;;;;;;2.28;2.03;;;;;;;;;;5088768;28;20403;-68
2022/06/06 10:04:16;;;;;;;2.63;1.60;;;;;;;;;;5093174;28;20039;-68
2022/06/06 10:07:18;;;;;;;2.15;1.90;;;;;;;;;;5089901;28;20052;-68
2022/06/06 10:09:50;;;;;;;2.28;1.77;;;;;;;;;;5046603;28;20041;-68
2022/06/06 10:12:31;;;;;;;2.45;2.05;;;;;;;;;;5081815;28;20172;-68
2022/06/06 10:15:16;;;;;;;3.35;1.92;;;;;;;;;;5094261;28;20509;-68
2022/06/06 10:17:55;;;;;;;3.45;1.70;;;;;;;;;;5087824;28;20044;-68
2022/06/06 10:20:21;;;;;;;2.95;2.03;;;;;;;;;;5091957;28;20036;-68
2022/06/06 10:22:47;;;;;;;1.95;1.73;;;;;;;;;;5095480;28;20537;-68
2022/06/06 10:25:16;;;;;;;4.05;1.95;;;;;;;;;;5095544;28;20048;-68
2022/06/06 10:27:58;;;;;;;2.22;1.80;;;;;;;;;;5095855;28;20082;-68
2022/06/06 10:30:27;;;;;;;3.13;2.13;;;;;;;;;;5095601;28;20078;-68
2022/06/06 10:33:12;;;;;;;3.65;2.35;;;;;;;;;;5096039;28;20074;-68
2022/06/06 10:35:57;;;;;;;2.90;1.90;;;;;;;;;;5095186;28;20047;-68
2022/06/06 10:38:23;;;;;;;2.05;1.88;;;;;;;;;;5094365;28;20046;-68
2022/06/06 10:41:16;;;;;;;3.42;1.90;;;;;;;;;;5095430;28;20059;-68
2022/06/06 10:43:49;;;;;;;2.53;2.20;;;;;;;;;;5072082;28;20181;-68
2022/06/06 10:46:24;;;;;;;2.20;2.00;;;;;;;;;;5093992;28;20522;-68
2022/06/06 10:49:09;;;;;;;2.70;1.42;;;;;;;;;;5095653;28;20048;-69
2022/06/06 10:51:54;;;;;;;2.88;1.98;;;;;;;;;;5094329;28;20055;-69
2022/06/06 10:54:38;;;;;;;4.75;2.88;;;;;;;;;;5089779;28;20046;-68
2022/06/06 10:57:07;;;;;;;3.83;1.95;;;;;;;;;;5082828;28;20048;-68
2022/06/06 10:59:52;;;;;;;5.05;2.50;;;;;;;;;;5095330;28;20044;-69
2022/06/06 11:02:18;;;;;;;2.28;1.88;;;;;;;;;;5094739;28;20039;-68
2022/06/06 11:04:45;;;;;;;2.13;1.75;;;;;;;;;;5094610;28;20076;-68
2022/06/06 11:07:36;;;;;;;2.10;1.95;;;;;;;;;;5079990;28;20040;-68
2022/06/06 11:10:19;;;;;;;1.98;1.65;;;;;;;;;;5083406;28;20115;-68
2022/06/06 11:13:05;;;;;;;1.90;1.75;;;;;;;;;;5094178;28;20117;-68
2022/06/06 11:15:37;;;;;;;2.30;1.70;;;;;;;;;;5086846;28;20119;-68
2022/06/06 11:18:16;;;;;;;3.78;1.80;;;;;;;;;;5072419;28;20059;-68
2022/06/06 11:21:00;;;;;;;2.00;1.90;;;;;;;;;;5074666;28;20149;-68
2022/06/06 11:23:33;;;;;;;3.97;1.90;;;;;;;;;;5084066;28;20043;-68
2022/06/06 11:26:14;;;;;;;3.30;2.10;;;;;;;;;;5089517;28;20499;-68
2022/06/06 11:28:46;;;;;;;2.15;1.95;;;;;;;;;;5094271;28;20032;-68
2022/06/06 11:31:27;;;;;;;3.72;1.90;;;;;;;;;;5097720;28;20043;-68
2022/06/06 11:33:56;;;;;;;1.70;1.60;;;;;;;;;;5115046;28;20044;-68
2022/06/06 11:36:26;;;;;;;2.28;1.70;;;;;;;;;;5114774;28;20078;-68
2022/06/06 11:39:03;;;;;;;2.65;1.70;;;;;;;;;;5114895;28;20035;-67
2022/06/06 11:41:53;;;;;;;1.80;1.60;;;;;;;;;;5103823;28;20040;-67
2022/06/06 11:44:31;;;;;;;1.92;1.70;;;;;;;;;;5092634;28;20543;-67
2022/06/06 11:47:06;;;;;;;3.40;2.50;;;;;;;;;;5092948;28;20105;-67
2022/06/06 11:49:32;;;;;;;2.45;2.05;;;;;;;;;;5093612;28;20032;-67
2022/06/06 11:52:17;;;;;;;4.68;3.03;;;;;;;;;;5093586;28;20028;-67
2022/06/06 11:55:02;;;;;;;5.50;2.95;;;;;;;;;;5093007;28;20040;-68
2022/06/06 11:57:37;;;;;;;4.03;2.30;;;;;;;;;;5077836;28;20402;-68
2022/06/06 12:00:12;;;;;;;1.83;1.70;;;;;;;;;;5080602;28;20035;-68
2022/06/06 12:02:38;;;;;;;1.92;1.73;;;;;;;;;;5094997;28;20441;-68
2022/06/06 12:05:10;;;;;;;3.30;2.20;;;;;;;;;;5093256;28;20041;-68
2022/06/06 12:07:36;;;;;;;5.38;2.88;;;;;;;;;;5091772;28;20044;-68
2022/06/06 12:10:20;;;;;;;4.38;2.03;;;;;;;;;;5097427;28;20040;-68
2022/06/06 12:13:05;;;;;;;1.67;1.50;;;;;;;;;;5094951;28;20513;-68
2022/06/06 12:15:50;;;;;;;4.00;2.10;;;;;;;;;;5079160;28;20044;-68
2022/06/06 12:18:20;;;;;;;2.80;2.22;;;;;;;;;;5080084;28;20040;-68
2022/06/06 12:20:52;;;;;;;3.20;2.00;;;;;;;;;;5078125;28;20777;-68
2022/06/06 12:23:18;;;;;;;1.85;1.67;;;;;;;;;;5090062;28;20071;-68
2022/06/06 12:26:16;;;;;;;3.05;1.80;;;;;;;;;;5098436;28;20036;-68
2022/06/06 12:28:55;;;;;;;1.92;1.60;;;;;;;;;;5055708;28;20487;-68
2022/06/06 12:31:24;;;;;;;2.13;1.92;;;;;;;;;;5097947;28;20032;-68
2022/06/06 12:33:57;;;;;;;3.17;1.52;;;;;;;;;;5098201;28;20044;-68
2022/06/06 12:36:34;;;;;;;2.13;1.92;;;;;;;;;;5097354;28;20046;-68
2022/06/06 12:39:14;;;;;;;2.40;1.52;;;;;;;;;;5098141;28;20043;-68
2022/06/06 12:42:04;;;;;;;1.90;1.73;;;;;;;;;;5097984;28;20118;-68
2022/06/06 12:44:43;;;;;;;2.10;1.90;;;;;;;;;;5098831;28;20036;-68
2022/06/06 12:47:15;;;;;;;1.92;1.80;;;;;;;;;;5077074;28;20053;-68
2022/06/06 12:49:53;;;;;;;2.75;1.92;;;;;;;;;;5077121;28;20498;-68
2022/06/06 12:52:32;;;;;;;2.22;1.63;;;;;;;;;;5077640;28;20495;-69
2022/06/06 12:57:37;;;;;;;3.35;1.90;;;;;;;;;;5077978;28;20047;-68
2022/06/06 13:00:10;;;;;;;2.00;1.60;;;;;;;;;;5077547;28;20058;-68
2022/06/06 13:02:39;;;;;;;6.78;1.90;;;;;;;;;;5077119;28;20048;-68
2022/06/06 13:05:25;;;;;;;2.83;1.98;;;;;;;;;;5075584;28;20431;-69
2022/06/06 13:08:00;;;;;;;2.20;1.63;;;;;;;;;;5081571;28;20090;-69
2022/06/06 13:10:50;;;;;;;2.13;1.90;;;;;;;;;;5104654;28;20071;-69
2022/06/06 13:13:34;;;;;;;1.92;1.60;;;;;;;;;;5089700;28;20513;-68
2022/06/06 13:16:06;;;;;;;2.08;1.85;;;;;;;;;;5096371;28;20047;-68
2022/06/06 13:18:53;;;;;;;1.45;1.33;;;;;;;;;;5096926;28;20181;-68
2022/06/06 13:21:44;;;;;;;1.88;1.75;;;;;;;;;;5092349;28;20052;-68
2022/06/06 13:24:29;;;;;;;1.60;1.50;;;;;;;;;;5092457;28;20055;-68
2022/06/06 13:27:13;;;;;;;1.88;1.60;;;;;;;;;;5092380;28;20047;-68
2022/06/06 13:29:39;;;;;;;2.50;1.30;;;;;;;;;;5096530;28;20055;-68
2022/06/06 13:32:20;;;;;;;1.77;1.67;;;;;;;;;;5099377;28;20036;-68
2022/06/06 13:35:04;;;;;;;3.75;1.52;;;;;;;;;;5113370;28;20536;-68
2022/06/06 13:37:46;;;;;;;1.92;1.63;;;;;;;;;;5103610;28;20047;-68
2022/06/06 13:40:28;;;;;;;1.52;1.40;;;;;;;;;;5093437;28;20056;-68
2022/06/06 13:42:57;;;;;;;1.52;1.42;;;;;;;;;;5076466;28;20086;-68
2022/06/06 13:45:27;;;;;;;4.53;1.80;;;;;;;;;;5083633;28;20047;-68
2022/06/06 13:47:59;;;;;;;2.47;1.70;;;;;;;;;;5097145;28;20055;-68
2022/06/06 13:50:57;;;;;;;2.20;1.42;;;;;;;;;;5095805;28;20044;-68
2022/06/06 13:53:42;;;;;;;1.75;1.50;;;;;;;;;;5033519;28;20119;-68
2022/06/06 13:56:20;;;;;;;3.03;1.50;;;;;;;;;;5093926;28;20036;-69
2022/06/06 13:58:56;;;;;;;3.00;1.60;;;;;;;;;;5095271;28;20506;-69
2022/06/06 14:01:25;;;;;;;2.00;1.80;;;;;;;;;;5096101;28;20044;-69
2022/06/06 14:03:54;;;;;;;2.30;2.00;;;;;;;;;;5096093;28;20118;-69
2022/06/06 14:06:53;;;;;;;3.28;2.03;;;;;;;;;;5095709;28;20070;-69
2022/06/06 14:09:34;;;;;;;4.47;1.95;;;;;;;;;;5048561;28;20044;-69
2022/06/06 14:12:14;;;;;;;4.10;1.65;;;;;;;;;;5075704;28;20044;-69
2022/06/06 14:14:43;;;;;;;3.70;2.05;;;;;;;;;;5089673;28;20109;-70
2022/06/06 14:17:10;;;;;;;2.00;1.77;;;;;;;;;;5095443;28;20039;-69
2022/06/06 14:19:48;;;;;;;4.05;1.80;;;;;;;;;;5093695;28;20043;-69
2022/06/06 14:22:25;;;;;;;2.35;1.67;;;;;;;;;;5094719;28;20515;-70
2022/06/06 14:24:53;;;;;;;4.80;2.10;;;;;;;;;;5092960;28;20101;-70
2022/06/06 14:27:20;;;;;;;2.03;1.70;;;;;;;;;;5092684;28;20083;-69
2022/06/06 14:29:52;;;;;;;2.75;1.70;;;;;;;;;;5094432;28;20040;-70
2022/06/06 14:32:18;;;;;;;2.40;1.70;;;;;;;;;;5093783;28;20075;-70
2022/06/06 14:34:46;;;;;;;1.92;1.70;;;;;;;;;;5095012;28;20083;-70
2022/06/06 14:37:15;;;;;;;1.70;1.42;;;;;;;;;;5093856;28;20064;-69
2022/06/06 14:39:45;;;;;;;2.20;1.70;;;;;;;;;;5093685;28;20123;-70
2022/06/06 14:42:12;;;;;;;3.38;1.90;;;;;;;;;;5092002;28;20048;-69
2022/06/06 14:44:42;;;;;;;2.13;1.52;;;;;;;;;;5094660;28;20097;-70
2022/06/06 14:47:11;;;;;;;2.15;1.50;;;;;;;;;;5094156;28;20540;-69
2022/06/06 14:49:39;;;;;;;4.28;1.88;;;;;;;;;;5095456;28;20182;-70
2022/06/06 14:52:24;;;;;;;2.75;1.92;;;;;;;;;;5093042;28;20498;-69
2022/06/06 14:54:53;;;;;;;1.77;1.45;;;;;;;;;;5093400;28;20032;-69
2022/06/06 14:57:19;;;;;;;4.03;1.60;;;;;;;;;;5093185;28;20040;-69
2022/06/06 14:59:49;;;;;;;11.00;1.80;;;;;;;;;;5094104;28;20060;-69
2022/06/06 15:02:28;;;;;;;2.25;1.73;;;;;;;;;;5093310;28;20422;-70
2022/06/06 15:05:10;;;;;;;2.35;1.70;;;;;;;;;;5094622;28;20044;-69
2022/06/06 15:07:57;;;;;;;4.07;1.52;;;;;;;;;;5094719;28;20046;-69
2022/06/06 15:10:27;;;;;;;1.75;1.60;;;;;;;;;;5094826;28;20528;-69
2022/06/06 15:12:54;;;;;;;2.50;1.70;;;;;;;;;;5090657;28;20048;-69
2022/06/06 15:15:21;;;;;;;2.17;1.60;;;;;;;;;;5091510;28;20043;-70
2022/06/06 15:17:50;;;;;;;3.45;1.52;;;;;;;;;;5100020;28;20044;-69
2022/06/06 15:20:16;;;;;;;4.07;1.95;;;;;;;;;;5091667;28;20035;-69
2022/06/06 15:22:44;;;;;;;6.00;1.60;;;;;;;;;;5094475;28;20040;-69
2022/06/06 15:25:22;;;;;;;5.45;1.92;;;;;;;;;;5094412;28;20043;-69
2022/06/06 15:27:51;;;;;;;7.65;3.17;;;;;;;;;;5094210;28;20139;-69
2022/06/06 15:30:24;;;;;;;10.38;3.60;;;;;;;;;;5094572;28;20119;-69
2022/06/06 15:32:58;;;;;;;10.10;3.80;;;;;;;;;;5097865;28;20039;-69
2022/06/06 15:35:27;;;;;;;12.80;4.78;;;;;;;;;;5114588;28;20043;-69
2022/06/06 15:37:59;;;;;;;9.73;4.30;;;;;;;;;;5114069;28;20073;-69
2022/06/06 15:40:32;;;;;;;8.55;3.95;;;;;;;;;;5114809;28;20034;-69
2022/06/06 15:43:01;;;;;;;8.02;4.15;;;;;;;;;;5114718;28;20107;-69
2022/06/06 15:45:46;;;;;;;4.60;3.83;;;;;;;;;;5114076;28;20043;-70
2022/06/06 15:48:32;;;;;;;7.30;3.60;;;;;;;;;;5114579;28;20064;-69
2022/06/06 15:50:58;;;;;;;5.53;3.33;;;;;;;;;;5114811;28;20047;-69